Arlington, MN

5:41 PM CST on November 22, 2014 (GMT -0600)
Highland Lane | Change Station
CLOSE
Current Station
Personal Weather Station
Location: Arlington, MN
Elevation: 978 ft
Nearby Weather Stations

Elev 978 ft 44.62 °N, 94.07 °W | Updated 50 seconds ago

Overcast
Overcast
35.2 °F
Feels Like 29 °F
N
6.9
Wind Variable Wind from South
Gusts 9.2 mph

Today
High -- | Low -- °F
--% Chance of Precip.
Yesterday
High -- | Low -- °F
Precip. -- in
7:22 AM 4:42 PM
New Moon, 0% visible
Pressure 29.58 in
Visibility 2.5 miles
Clouds Overcast 300 ft
Windchill 29 °F
Dew Point 30 °F
Humidity 82%
Rainfall 0.00 in
Snow Depth Not available.
UV 0 out of 12
Pollen .10 out of 12
Air Quality Not available.
Flu Activity Not available.
METAR KGYL 222334Z AUTO 14007KT 2 1/2SM BR OVC003 02/02 A2958 RMK AO2 T00210020

More Conditions Fewer Conditions

Pressure 29.58 in
Visibility 2.5 miles
Clouds Overcast 300 ft
Windchill 29 °F
Dew Point 30 °F
Humidity 82%
Rainfall 0.00 in
Snow Depth Not available.
UV 0 out of 12
Pollen .10 out of 12
Air Quality Not available.
Flu Activity Not available.
METAR KGYL 222334Z AUTO 14007KT 2 1/2SM BR OVC003 02/02 A2958 RMK AO2 T00210020

More Conditions Fewer Conditions

10-Day Weather Forecast

Almanac

Astronomy

Nov. 22, 2014 Rise Set
Actual Time
Civil Twilight
Nautical Twilight
Astronomical Twilight
Moon
Length of Visible Light
Length of Day
Tomorrow will be .
, % of the Moon is Illuminated

Today's Extremes

State Highs State Lows

Community

WunderPhotos

Upload Photos

1,772,928 photos uploaded!

WunderBlogs® & News

Nearby

Air Quality

  Air Quality AQ Index Pollutant
Not available.

Snow Depth

Station Depth Elevation

Earthquake Activity

City Distance Mag. Time & Date
Minimum magnitude displayed is 2.5.

Coastal Water Temperatures

Place Temperature

Nearby Weather Stations